sensor_id;sensor_type;location;lat;lon;timestamp;P1;durP1;ratioP1;P2;durP2;ratioP2
20454;SDS011;10386;54.314;10.022;2023-08-07T00:02:04;4.17;;;2.17;;
20454;SDS011;10386;54.314;10.022;2023-08-07T00:04:31;4.57;;;2.03;;
20454;SDS011;10386;54.314;10.022;2023-08-07T00:06:58;2.27;;;2.07;;
20454;SDS011;10386;54.314;10.022;2023-08-07T00:09:24;2.87;;;2.00;;
20454;SDS011;10386;54.314;10.022;2023-08-07T00:11:51;2.87;;;1.80;;
20454;SDS011;10386;54.314;10.022;2023-08-07T00:14:18;3.07;;;2.00;;
20454;SDS011;10386;54.314;10.022;2023-08-07T00:16:45;5.37;;;2.50;;
20454;SDS011;10386;54.314;10.022;2023-08-07T00:19:12;3.53;;;1.90;;
20454;SDS011;10386;54.314;10.022;2023-08-07T00:21:39;5.00;;;2.10;;
20454;SDS011;10386;54.314;10.022;2023-08-07T00:24:06;2.53;;;1.83;;
20454;SDS011;10386;54.314;10.022;2023-08-07T00:26:33;3.53;;;2.00;;
20454;SDS011;10386;54.314;10.022;2023-08-07T00:28:59;2.63;;;1.90;;
20454;SDS011;10386;54.314;10.022;2023-08-07T00:31:26;2.57;;;1.60;;
20454;SDS011;10386;54.314;10.022;2023-08-07T00:33:57;3.37;;;2.23;;
20454;SDS011;10386;54.314;10.022;2023-08-07T00:36:25;3.17;;;1.90;;
20454;SDS011;10386;54.314;10.022;2023-08-07T00:38:54;4.63;;;2.00;;
20454;SDS011;10386;54.314;10.022;2023-08-07T00:41:22;2.20;;;2.00;;
20454;SDS011;10386;54.314;10.022;2023-08-07T00:43:49;6.33;;;2.37;;
20454;SDS011;10386;54.314;10.022;2023-08-07T00:46:15;2.53;;;2.20;;
20454;SDS011;10386;54.314;10.022;2023-08-07T00:48:42;4.47;;;2.10;;
20454;SDS011;10386;54.314;10.022;2023-08-07T00:51:09;5.20;;;2.67;;
20454;SDS011;10386;54.314;10.022;2023-08-07T00:53:37;8.20;;;2.43;;
20454;SDS011;10386;54.314;10.022;2023-08-07T00:56:05;3.37;;;2.10;;
20454;SDS011;10386;54.314;10.022;2023-08-07T00:58:32;5.43;;;2.03;;
20454;SDS011;10386;54.314;10.022;2023-08-07T01:01:00;2.27;;;1.77;;
20454;SDS011;10386;54.314;10.022;2023-08-07T01:03:27;5.13;;;2.03;;
20454;SDS011;10386;54.314;10.022;2023-08-07T01:05:54;2.93;;;1.80;;
20454;SDS011;10386;54.314;10.022;2023-08-07T01:08:22;2.70;;;2.17;;
20454;SDS011;10386;54.314;10.022;2023-08-07T01:16:45;2.37;;;2.00;;
20454;SDS011;10386;54.314;10.022;2023-08-07T01:19:22;4.70;;;2.40;;
20454;SDS011;10386;54.314;10.022;2023-08-07T01:24:53;2.90;;;2.30;;
20454;SDS011;10386;54.314;10.022;2023-08-07T01:32:34;2.37;;;2.17;;
20454;SDS011;10386;54.314;10.022;2023-08-07T01:35:02;2.10;;;2.00;;
20454;SDS011;10386;54.314;10.022;2023-08-07T01:37:31;2.43;;;2.23;;
20454;SDS011;10386;54.314;10.022;2023-08-07T01:40:00;6.20;;;2.40;;
20454;SDS011;10386;54.314;10.022;2023-08-07T01:42:30;4.10;;;2.40;;
20454;SDS011;10386;54.314;10.022;2023-08-07T01:45:00;3.83;;;2.03;;
20454;SDS011;10386;54.314;10.022;2023-08-07T01:47:27;4.77;;;2.27;;
20454;SDS011;10386;54.314;10.022;2023-08-07T01:49:54;3.33;;;2.00;;
20454;SDS011;10386;54.314;10.022;2023-08-07T01:52:21;3.83;;;2.43;;
20454;SDS011;10386;54.314;10.022;2023-08-07T01:54:48;3.30;;;2.27;;
20454;SDS011;10386;54.314;10.022;2023-08-07T01:57:14;3.37;;;2.30;;
20454;SDS011;10386;54.314;10.022;2023-08-07T01:59:41;3.23;;;2.40;;
20454;SDS011;10386;54.314;10.022;2023-08-07T02:02:10;5.00;;;2.47;;
20454;SDS011;10386;54.314;10.022;2023-08-07T02:04:37;6.83;;;2.60;;
20454;SDS011;10386;54.314;10.022;2023-08-07T02:07:04;3.97;;;2.50;;
20454;SDS011;10386;54.314;10.022;2023-08-07T02:09:30;4.37;;;2.30;;
20454;SDS011;10386;54.314;10.022;2023-08-07T02:11:57;4.97;;;2.53;;
20454;SDS011;10386;54.314;10.022;2023-08-07T02:14:24;6.07;;;2.50;;
20454;SDS011;10386;54.314;10.022;2023-08-07T02:16:51;3.27;;;2.13;;
20454;SDS011;10386;54.314;10.022;2023-08-07T02:19:18;5.33;;;2.53;;
20454;SDS011;10386;54.314;10.022;2023-08-07T02:21:44;4.70;;;2.83;;
20454;SDS011;10386;54.314;10.022;2023-08-07T02:24:11;4.43;;;2.40;;
20454;SDS011;10386;54.314;10.022;2023-08-07T02:26:40;3.47;;;2.40;;
20454;SDS011;10386;54.314;10.022;2023-08-07T02:29:06;5.67;;;2.63;;
20454;SDS011;10386;54.314;10.022;2023-08-07T02:31:35;8.27;;;2.73;;
20454;SDS011;10386;54.314;10.022;2023-08-07T02:34:02;3.93;;;2.73;;
20454;SDS011;10386;54.314;10.022;2023-08-07T02:36:28;7.77;;;2.80;;
20454;SDS011;10386;54.314;10.022;2023-08-07T02:38:55;7.50;;;2.87;;
20454;SDS011;10386;54.314;10.022;2023-08-07T02:41:22;4.30;;;2.70;;
20454;SDS011;10386;54.314;10.022;2023-08-07T02:43:49;5.23;;;2.60;;
20454;SDS011;10386;54.314;10.022;2023-08-07T02:46:15;7.70;;;3.43;;
20454;SDS011;10386;54.314;10.022;2023-08-07T02:48:43;4.80;;;2.87;;
20454;SDS011;10386;54.314;10.022;2023-08-07T02:51:10;7.00;;;3.10;;
20454;SDS011;10386;54.314;10.022;2023-08-07T02:53:37;5.00;;;2.90;;
20454;SDS011;10386;54.314;10.022;2023-08-07T02:56:03;5.07;;;2.60;;
20454;SDS011;10386;54.314;10.022;2023-08-07T02:58:31;8.33;;;2.73;;
20454;SDS011;10386;54.314;10.022;2023-08-07T03:01:02;4.00;;;2.40;;
20454;SDS011;10386;54.314;10.022;2023-08-07T03:03:31;3.40;;;2.53;;
20454;SDS011;10386;54.314;10.022;2023-08-07T03:05:58;3.57;;;2.80;;
20454;SDS011;10386;54.314;10.022;2023-08-07T03:08:25;3.77;;;2.87;;
20454;SDS011;10386;54.314;10.022;2023-08-07T03:10:55;3.83;;;2.50;;
20454;SDS011;10386;54.314;10.022;2023-08-07T03:13:26;4.80;;;2.90;;
20454;SDS011;10386;54.314;10.022;2023-08-07T03:16:04;6.07;;;2.50;;
20454;SDS011;10386;54.314;10.022;2023-08-07T03:18:32;6.37;;;2.83;;
20454;SDS011;10386;54.314;10.022;2023-08-07T03:20:59;3.73;;;2.53;;
20454;SDS011;10386;54.314;10.022;2023-08-07T03:23:27;4.33;;;2.60;;
20454;SDS011;10386;54.314;10.022;2023-08-07T03:26:10;5.87;;;2.83;;
20454;SDS011;10386;54.314;10.022;2023-08-07T03:28:44;6.10;;;2.50;;
20454;SDS011;10386;54.314;10.022;2023-08-07T03:31:14;6.80;;;2.30;;
20454;SDS011;10386;54.314;10.022;2023-08-07T03:33:41;3.77;;;2.83;;
20454;SDS011;10386;54.314;10.022;2023-08-07T03:36:07;2.77;;;2.57;;
20454;SDS011;10386;54.314;10.022;2023-08-07T03:38:35;6.40;;;2.53;;
20454;SDS011;10386;54.314;10.022;2023-08-07T03:41:02;7.07;;;2.77;;
20454;SDS011;10386;54.314;10.022;2023-08-07T03:43:29;6.83;;;2.73;;
20454;SDS011;10386;54.314;10.022;2023-08-07T03:45:56;5.13;;;2.63;;
20454;SDS011;10386;54.314;10.022;2023-08-07T03:48:28;5.27;;;2.20;;
20454;SDS011;10386;54.314;10.022;2023-08-07T03:51:01;7.07;;;2.50;;
20454;SDS011;10386;54.314;10.022;2023-08-07T03:53:31;5.23;;;2.33;;
20454;SDS011;10386;54.314;10.022;2023-08-07T03:55:58;7.47;;;2.67;;
20454;SDS011;10386;54.314;10.022;2023-08-07T03:58:25;6.13;;;2.57;;
20454;SDS011;10386;54.314;10.022;2023-08-07T04:00:53;3.57;;;2.50;;
20454;SDS011;10386;54.314;10.022;2023-08-07T04:03:20;3.90;;;2.93;;
20454;SDS011;10386;54.314;10.022;2023-08-07T04:05:47;5.67;;;1.93;;
20454;SDS011;10386;54.314;10.022;2023-08-07T04:08:18;4.00;;;2.30;;
20454;SDS011;10386;54.314;10.022;2023-08-07T04:10:45;4.47;;;2.70;;
20454;SDS011;10386;54.314;10.022;2023-08-07T04:13:12;6.37;;;2.37;;
20454;SDS011;10386;54.314;10.022;2023-08-07T04:15:40;8.03;;;2.70;;
20454;SDS011;10386;54.314;10.022;2023-08-07T04:18:07;8.30;;;2.90;;
20454;SDS011;10386;54.314;10.022;2023-08-07T04:20:37;4.00;;;2.30;;
20454;SDS011;10386;54.314;10.022;2023-08-07T04:23:04;8.60;;;2.30;;
20454;SDS011;10386;54.314;10.022;2023-08-07T04:25:31;6.63;;;2.60;;
20454;SDS011;10386;54.314;10.022;2023-08-07T04:27:58;7.73;;;2.50;;
20454;SDS011;10386;54.314;10.022;2023-08-07T04:30:25;7.30;;;2.80;;
20454;SDS011;10386;54.314;10.022;2023-08-07T04:32:51;7.53;;;2.60;;
20454;SDS011;10386;54.314;10.022;2023-08-07T04:35:18;5.23;;;2.43;;
20454;SDS011;10386;54.314;10.022;2023-08-07T04:37:45;5.37;;;2.87;;
20454;SDS011;10386;54.314;10.022;2023-08-07T04:40:11;7.97;;;2.47;;
20454;SDS011;10386;54.314;10.022;2023-08-07T04:42:39;4.27;;;2.50;;
20454;SDS011;10386;54.314;10.022;2023-08-07T04:45:06;7.30;;;2.60;;
20454;SDS011;10386;54.314;10.022;2023-08-07T04:47:33;6.57;;;3.07;;
20454;SDS011;10386;54.314;10.022;2023-08-07T04:49:59;6.33;;;2.40;;
20454;SDS011;10386;54.314;10.022;2023-08-07T04:52:26;5.40;;;2.40;;
20454;SDS011;10386;54.314;10.022;2023-08-07T04:54:53;8.53;;;2.87;;
20454;SDS011;10386;54.314;10.022;2023-08-07T04:57:20;7.40;;;2.77;;
20454;SDS011;10386;54.314;10.022;2023-08-07T04:59:46;10.57;;;2.80;;
20454;SDS011;10386;54.314;10.022;2023-08-07T05:02:13;6.93;;;2.67;;
20454;SDS011;10386;54.314;10.022;2023-08-07T05:04:40;7.03;;;2.73;;
20454;SDS011;10386;54.314;10.022;2023-08-07T05:07:07;9.27;;;2.43;;
20454;SDS011;10386;54.314;10.022;2023-08-07T05:09:34;6.00;;;2.50;;
20454;SDS011;10386;54.314;10.022;2023-08-07T05:12:01;9.93;;;2.90;;
20454;SDS011;10386;54.314;10.022;2023-08-07T05:14:29;11.33;;;2.83;;
20454;SDS011;10386;54.314;10.022;2023-08-07T05:16:56;12.20;;;3.37;;
20454;SDS011;10386;54.314;10.022;2023-08-07T05:19:23;11.00;;;2.77;;
20454;SDS011;10386;54.314;10.022;2023-08-07T05:21:49;8.57;;;2.70;;
20454;SDS011;10386;54.314;10.022;2023-08-07T05:24:17;13.80;;;3.10;;
20454;SDS011;10386;54.314;10.022;2023-08-07T05:26:44;11.87;;;2.73;;
20454;SDS011;10386;54.314;10.022;2023-08-07T05:29:11;18.93;;;4.40;;
20454;SDS011;10386;54.314;10.022;2023-08-07T05:31:38;10.60;;;2.77;;
20454;SDS011;10386;54.314;10.022;2023-08-07T05:34:05;11.00;;;3.10;;
20454;SDS011;10386;54.314;10.022;2023-08-07T05:36:33;15.00;;;3.30;;
20454;SDS011;10386;54.314;10.022;2023-08-07T05:38:59;11.93;;;3.20;;
20454;SDS011;10386;54.314;10.022;2023-08-07T05:41:26;10.13;;;3.10;;
20454;SDS011;10386;54.314;10.022;2023-08-07T05:43:53;10.73;;;2.77;;
20454;SDS011;10386;54.314;10.022;2023-08-07T05:46:20;11.57;;;3.13;;
20454;SDS011;10386;54.314;10.022;2023-08-07T05:48:46;16.30;;;3.23;;
20454;SDS011;10386;54.314;10.022;2023-08-07T05:51:13;13.40;;;3.43;;
20454;SDS011;10386;54.314;10.022;2023-08-07T05:53:40;14.13;;;3.53;;
20454;SDS011;10386;54.314;10.022;2023-08-07T05:56:07;14.53;;;3.17;;
20454;SDS011;10386;54.314;10.022;2023-08-07T05:58:34;11.20;;;3.10;;
20454;SDS011;10386;54.314;10.022;2023-08-07T06:01:00;10.93;;;3.20;;
20454;SDS011;10386;54.314;10.022;2023-08-07T06:03:27;9.13;;;3.03;;
20454;SDS011;10386;54.314;10.022;2023-08-07T06:05:54;13.07;;;3.20;;
20454;SDS011;10386;54.314;10.022;2023-08-07T06:08:21;15.03;;;2.93;;
20454;SDS011;10386;54.314;10.022;2023-08-07T06:10:48;18.13;;;3.57;;
20454;SDS011;10386;54.314;10.022;2023-08-07T06:13:14;13.60;;;3.33;;
20454;SDS011;10386;54.314;10.022;2023-08-07T06:15:59;12.73;;;3.73;;
20454;SDS011;10386;54.314;10.022;2023-08-07T06:18:26;15.43;;;3.60;;
20454;SDS011;10386;54.314;10.022;2023-08-07T06:20:53;16.40;;;3.20;;
20454;SDS011;10386;54.314;10.022;2023-08-07T06:23:20;13.87;;;3.10;;
20454;SDS011;10386;54.314;10.022;2023-08-07T06:25:46;13.13;;;3.40;;
20454;SDS011;10386;54.314;10.022;2023-08-07T06:28:13;9.73;;;3.40;;
20454;SDS011;10386;54.314;10.022;2023-08-07T06:30:40;13.10;;;3.50;;
20454;SDS011;10386;54.314;10.022;2023-08-07T06:33:06;16.47;;;3.60;;
20454;SDS011;10386;54.314;10.022;2023-08-07T06:35:40;15.03;;;3.83;;
20454;SDS011;10386;54.314;10.022;2023-08-07T06:38:08;10.50;;;3.63;;
20454;SDS011;10386;54.314;10.022;2023-08-07T06:40:38;9.37;;;3.20;;
20454;SDS011;10386;54.314;10.022;2023-08-07T06:43:04;11.63;;;3.10;;
20454;SDS011;10386;54.314;10.022;2023-08-07T06:45:31;13.57;;;3.67;;
20454;SDS011;10386;54.314;10.022;2023-08-07T06:47:58;14.63;;;4.27;;
20454;SDS011;10386;54.314;10.022;2023-08-07T06:50:25;16.20;;;3.67;;
20454;SDS011;10386;54.314;10.022;2023-08-07T06:52:52;12.80;;;3.47;;
20454;SDS011;10386;54.314;10.022;2023-08-07T06:55:18;16.67;;;3.60;;
20454;SDS011;10386;54.314;10.022;2023-08-07T06:57:45;11.63;;;3.00;;
20454;SDS011;10386;54.314;10.022;2023-08-07T07:00:12;11.37;;;3.47;;
20454;SDS011;10386;54.314;10.022;2023-08-07T07:02:39;12.83;;;3.50;;
20454;SDS011;10386;54.314;10.022;2023-08-07T07:05:06;15.93;;;3.53;;
20454;SDS011;10386;54.314;10.022;2023-08-07T07:07:32;9.33;;;3.20;;
20454;SDS011;10386;54.314;10.022;2023-08-07T07:09:59;15.57;;;3.23;;
20454;SDS011;10386;54.314;10.022;2023-08-07T07:12:27;11.93;;;3.40;;
20454;SDS011;10386;54.314;10.022;2023-08-07T07:14:54;11.97;;;2.97;;
20454;SDS011;10386;54.314;10.022;2023-08-07T07:17:21;10.73;;;3.20;;
20454;SDS011;10386;54.314;10.022;2023-08-07T07:19:48;12.47;;;3.50;;
20454;SDS011;10386;54.314;10.022;2023-08-07T07:22:15;11.57;;;3.87;;
20454;SDS011;10386;54.314;10.022;2023-08-07T07:24:42;16.57;;;3.40;;
20454;SDS011;10386;54.314;10.022;2023-08-07T07:27:08;11.70;;;3.43;;
20454;SDS011;10386;54.314;10.022;2023-08-07T07:29:35;16.87;;;4.40;;
20454;SDS011;10386;54.314;10.022;2023-08-07T07:32:02;16.07;;;3.83;;
20454;SDS011;10386;54.314;10.022;2023-08-07T07:34:29;11.57;;;3.57;;
20454;SDS011;10386;54.314;10.022;2023-08-07T07:36:56;17.70;;;4.20;;
20454;SDS011;10386;54.314;10.022;2023-08-07T07:39:22;16.30;;;3.87;;
20454;SDS011;10386;54.314;10.022;2023-08-07T07:41:49;16.13;;;3.70;;
20454;SDS011;10386;54.314;10.022;2023-08-07T07:44:16;16.33;;;3.50;;
20454;SDS011;10386;54.314;10.022;2023-08-07T07:46:42;20.60;;;4.60;;
20454;SDS011;10386;54.314;10.022;2023-08-07T07:49:09;14.80;;;3.70;;
20454;SDS011;10386;54.314;10.022;2023-08-07T07:51:36;19.77;;;4.07;;
20454;SDS011;10386;54.314;10.022;2023-08-07T07:54:03;18.80;;;4.00;;
20454;SDS011;10386;54.314;10.022;2023-08-07T07:56:33;16.07;;;3.70;;
20454;SDS011;10386;54.314;10.022;2023-08-07T07:59:00;17.50;;;4.30;;
20454;SDS011;10386;54.314;10.022;2023-08-07T08:01:27;23.53;;;3.93;;
20454;SDS011;10386;54.314;10.022;2023-08-07T08:03:54;14.57;;;3.57;;
20454;SDS011;10386;54.314;10.022;2023-08-07T08:06:21;19.63;;;3.90;;
20454;SDS011;10386;54.314;10.022;2023-08-07T08:08:48;22.70;;;4.07;;
20454;SDS011;10386;54.314;10.022;2023-08-07T08:11:14;11.17;;;3.20;;
20454;SDS011;10386;54.314;10.022;2023-08-07T08:13:41;14.90;;;3.87;;
20454;SDS011;10386;54.314;10.022;2023-08-07T08:16:08;11.60;;;3.73;;
20454;SDS011;10386;54.314;10.022;2023-08-07T08:18:35;23.27;;;4.00;;
20454;SDS011;10386;54.314;10.022;2023-08-07T08:21:01;17.27;;;4.30;;
20454;SDS011;10386;54.314;10.022;2023-08-07T08:23:28;13.93;;;3.80;;
20454;SDS011;10386;54.314;10.022;2023-08-07T08:25:55;18.50;;;4.20;;
20454;SDS011;10386;54.314;10.022;2023-08-07T08:28:22;16.23;;;4.03;;
20454;SDS011;10386;54.314;10.022;2023-08-07T08:30:50;17.03;;;3.77;;
20454;SDS011;10386;54.314;10.022;2023-08-07T08:33:17;12.80;;;3.20;;
20454;SDS011;10386;54.314;10.022;2023-08-07T08:35:44;12.20;;;3.10;;
20454;SDS011;10386;54.314;10.022;2023-08-07T08:38:11;15.20;;;4.13;;
20454;SDS011;10386;54.314;10.022;2023-08-07T08:40:38;11.43;;;3.10;;
20454;SDS011;10386;54.314;10.022;2023-08-07T08:43:06;16.53;;;3.57;;
20454;SDS011;10386;54.314;10.022;2023-08-07T08:45:33;13.90;;;3.60;;
20454;SDS011;10386;54.314;10.022;2023-08-07T08:48:03;10.50;;;3.07;;
20454;SDS011;10386;54.314;10.022;2023-08-07T08:50:30;17.63;;;3.67;;
20454;SDS011;10386;54.314;10.022;2023-08-07T08:52:59;14.53;;;3.73;;
20454;SDS011;10386;54.314;10.022;2023-08-07T08:55:29;14.93;;;3.50;;
20454;SDS011;10386;54.314;10.022;2023-08-07T08:57:56;14.47;;;3.40;;
20454;SDS011;10386;54.314;10.022;2023-08-07T09:00:27;8.30;;;3.20;;
20454;SDS011;10386;54.314;10.022;2023-08-07T09:02:56;11.67;;;3.43;;
20454;SDS011;10386;54.314;10.022;2023-08-07T09:05:23;10.83;;;3.53;;
20454;SDS011;10386;54.314;10.022;2023-08-07T09:07:50;14.50;;;3.40;;
20454;SDS011;10386;54.314;10.022;2023-08-07T09:10:17;15.30;;;3.63;;
20454;SDS011;10386;54.314;10.022;2023-08-07T09:15:25;15.80;;;3.17;;
20454;SDS011;10386;54.314;10.022;2023-08-07T09:17:54;11.80;;;3.30;;
20454;SDS011;10386;54.314;10.022;2023-08-07T09:20:22;14.60;;;3.43;;
20454;SDS011;10386;54.314;10.022;2023-08-07T09:22:49;18.97;;;4.43;;
20454;SDS011;10386;54.314;10.022;2023-08-07T09:25:26;14.17;;;3.63;;
20454;SDS011;10386;54.314;10.022;2023-08-07T09:28:03;14.57;;;3.80;;
20454;SDS011;10386;54.314;10.022;2023-08-07T09:30:35;17.90;;;3.70;;
20454;SDS011;10386;54.314;10.022;2023-08-07T09:33:03;14.77;;;3.93;;
20454;SDS011;10386;54.314;10.022;2023-08-07T09:35:30;24.20;;;3.80;;
20454;SDS011;10386;54.314;10.022;2023-08-07T09:37:58;19.60;;;3.47;;
20454;SDS011;10386;54.314;10.022;2023-08-07T09:40:25;17.60;;;4.20;;
20454;SDS011;10386;54.314;10.022;2023-08-07T09:42:52;16.33;;;3.60;;
20454;SDS011;10386;54.314;10.022;2023-08-07T09:47:57;15.53;;;3.30;;
20454;SDS011;10386;54.314;10.022;2023-08-07T09:50:28;16.93;;;3.53;;
20454;SDS011;10386;54.314;10.022;2023-08-07T09:52:56;28.67;;;3.77;;
20454;SDS011;10386;54.314;10.022;2023-08-07T09:55:25;20.83;;;3.47;;
20454;SDS011;10386;54.314;10.022;2023-08-07T09:57:52;16.03;;;3.50;;
20454;SDS011;10386;54.314;10.022;2023-08-07T10:00:19;17.30;;;4.23;;
20454;SDS011;10386;54.314;10.022;2023-08-07T10:02:48;11.47;;;3.30;;
20454;SDS011;10386;54.314;10.022;2023-08-07T10:05:16;17.30;;;3.20;;
20454;SDS011;10386;54.314;10.022;2023-08-07T10:07:44;15.67;;;4.23;;
20454;SDS011;10386;54.314;10.022;2023-08-07T10:10:13;11.67;;;3.73;;
20454;SDS011;10386;54.314;10.022;2023-08-07T10:12:41;14.47;;;3.30;;
20454;SDS011;10386;54.314;10.022;2023-08-07T10:15:08;15.23;;;3.67;;
20454;SDS011;10386;54.314;10.022;2023-08-07T10:17:35;18.77;;;3.57;;
20454;SDS011;10386;54.314;10.022;2023-08-07T10:20:02;16.37;;;3.50;;
20454;SDS011;10386;54.314;10.022;2023-08-07T10:22:30;10.23;;;3.33;;
20454;SDS011;10386;54.314;10.022;2023-08-07T10:24:59;10.50;;;2.90;;
20454;SDS011;10386;54.314;10.022;2023-08-07T10:27:27;11.77;;;3.43;;
20454;SDS011;10386;54.314;10.022;2023-08-07T10:29:57;14.90;;;3.40;;
20454;SDS011;10386;54.314;10.022;2023-08-07T10:32:26;11.82;;;3.28;;
20454;SDS011;10386;54.314;10.022;2023-08-07T10:34:55;9.32;;;2.60;;
20454;SDS011;10386;54.314;10.022;2023-08-07T10:37:41;11.17;;;2.67;;
20454;SDS011;10386;54.314;10.022;2023-08-07T10:40:11;10.02;;;2.40;;
20454;SDS011;10386;54.314;10.022;2023-08-07T10:42:55;17.73;;;3.13;;
20454;SDS011;10386;54.314;10.022;2023-08-07T10:45:27;11.97;;;3.07;;
20454;SDS011;10386;54.314;10.022;2023-08-07T10:48:01;13.37;;;3.23;;
20454;SDS011;10386;54.314;10.022;2023-08-07T10:50:31;9.80;;;2.67;;
20454;SDS011;10386;54.314;10.022;2023-08-07T10:53:02;7.03;;;2.50;;
20454;SDS011;10386;54.314;10.022;2023-08-07T10:55:45;12.70;;;2.60;;
20454;SDS011;10386;54.314;10.022;2023-08-07T10:58:22;7.73;;;2.60;;
20454;SDS011;10386;54.314;10.022;2023-08-07T11:06:22;8.90;;;2.53;;
20454;SDS011;10386;54.314;10.022;2023-08-07T11:09:00;10.97;;;3.00;;
20454;SDS011;10386;54.314;10.022;2023-08-07T11:11:27;5.47;;;2.27;;
20454;SDS011;10386;54.314;10.022;2023-08-07T11:13:54;7.97;;;1.97;;
20454;SDS011;10386;54.314;10.022;2023-08-07T11:16:21;13.03;;;2.20;;
20454;SDS011;10386;54.314;10.022;2023-08-07T11:18:48;10.70;;;2.57;;
20454;SDS011;10386;54.314;10.022;2023-08-07T11:21:15;10.93;;;2.77;;
20454;SDS011;10386;54.314;10.022;2023-08-07T11:23:42;7.97;;;2.17;;
20454;SDS011;10386;54.314;10.022;2023-08-07T11:26:11;9.83;;;2.27;;
20454;SDS011;10386;54.314;10.022;2023-08-07T11:28:38;6.80;;;2.47;;
20454;SDS011;10386;54.314;10.022;2023-08-07T11:31:05;11.77;;;3.17;;
20454;SDS011;10386;54.314;10.022;2023-08-07T11:33:33;8.90;;;2.60;;
20454;SDS011;10386;54.314;10.022;2023-08-07T11:35:59;15.90;;;3.17;;
20454;SDS011;10386;54.314;10.022;2023-08-07T11:38:31;8.43;;;2.80;;
20454;SDS011;10386;54.314;10.022;2023-08-07T11:41:05;11.23;;;2.90;;
20454;SDS011;10386;54.314;10.022;2023-08-07T11:43:33;11.70;;;3.13;;
20454;SDS011;10386;54.314;10.022;2023-08-07T11:46:01;12.48;;;2.97;;
20454;SDS011;10386;54.314;10.022;2023-08-07T11:48:29;10.80;;;2.88;;
20454;SDS011;10386;54.314;10.022;2023-08-07T11:50:58;10.82;;;2.78;;
20454;SDS011;10386;54.314;10.022;2023-08-07T11:53:26;14.77;;;3.00;;
20454;SDS011;10386;54.314;10.022;2023-08-07T11:55:56;13.82;;;3.25;;
20454;SDS011;10386;54.314;10.022;2023-08-07T11:58:25;12.83;;;2.60;;
20454;SDS011;10386;54.314;10.022;2023-08-07T12:00:53;14.07;;;2.85;;
20454;SDS011;10386;54.314;10.022;2023-08-07T12:05:55;13.23;;;2.60;;
20454;SDS011;10386;54.314;10.022;2023-08-07T12:08:23;12.38;;;2.90;;
20454;SDS011;10386;54.314;10.022;2023-08-07T12:10:51;12.70;;;3.13;;
20454;SDS011;10386;54.314;10.022;2023-08-07T12:13:20;12.07;;;2.45;;
20454;SDS011;10386;54.314;10.022;2023-08-07T12:15:51;13.35;;;2.97;;
20454;SDS011;10386;54.314;10.022;2023-08-07T12:18:20;8.10;;;2.50;;
20454;SDS011;10386;54.314;10.022;2023-08-07T12:20:47;13.97;;;2.47;;
20454;SDS011;10386;54.314;10.022;2023-08-07T12:23:15;10.07;;;2.50;;
20454;SDS011;10386;54.314;10.022;2023-08-07T12:25:43;11.70;;;2.40;;
20454;SDS011;10386;54.314;10.022;2023-08-07T12:28:11;13.45;;;2.72;;
20454;SDS011;10386;54.314;10.022;2023-08-07T12:30:38;11.90;;;3.10;;
20454;SDS011;10386;54.314;10.022;2023-08-07T12:33:04;14.80;;;2.70;;
20454;SDS011;10386;54.314;10.022;2023-08-07T12:35:37;10.43;;;2.55;;
20454;SDS011;10386;54.314;10.022;2023-08-07T12:38:03;10.82;;;2.90;;
20454;SDS011;10386;54.314;10.022;2023-08-07T12:40:31;8.82;;;2.80;;
20454;SDS011;10386;54.314;10.022;2023-08-07T12:43:02;12.68;;;2.50;;
20454;SDS011;10386;54.314;10.022;2023-08-07T12:45:30;12.87;;;3.03;;
20454;SDS011;10386;54.314;10.022;2023-08-07T12:48:00;15.73;;;3.33;;
20454;SDS011;10386;54.314;10.022;2023-08-07T12:50:27;11.40;;;2.67;;
20454;SDS011;10386;54.314;10.022;2023-08-07T12:52:55;16.47;;;3.77;;
20454;SDS011;10386;54.314;10.022;2023-08-07T12:55:21;14.63;;;3.40;;
20454;SDS011;10386;54.314;10.022;2023-08-07T12:57:48;9.50;;;3.57;;
20454;SDS011;10386;54.314;10.022;2023-08-07T13:00:16;12.43;;;3.17;;
20454;SDS011;10386;54.314;10.022;2023-08-07T13:02:44;14.27;;;3.30;;
20454;SDS011;10386;54.314;10.022;2023-08-07T13:05:12;15.77;;;3.53;;
20454;SDS011;10386;54.314;10.022;2023-08-07T13:07:41;14.27;;;3.13;;
20454;SDS011;10386;54.314;10.022;2023-08-07T13:10:09;16.43;;;3.23;;
20454;SDS011;10386;54.314;10.022;2023-08-07T13:12:38;12.63;;;3.07;;
20454;SDS011;10386;54.314;10.022;2023-08-07T13:15:07;16.93;;;3.50;;
20454;SDS011;10386;54.314;10.022;2023-08-07T13:17:35;13.10;;;2.93;;
20454;SDS011;10386;54.314;10.022;2023-08-07T13:20:02;14.30;;;3.07;;
20454;SDS011;10386;54.314;10.022;2023-08-07T13:22:36;16.33;;;2.90;;
20454;SDS011;10386;54.314;10.022;2023-08-07T13:25:04;11.13;;;3.13;;
20454;SDS011;10386;54.314;10.022;2023-08-07T13:27:32;10.97;;;3.03;;
20454;SDS011;10386;54.314;10.022;2023-08-07T13:29:59;14.13;;;3.60;;
20454;SDS011;10386;54.314;10.022;2023-08-07T13:32:27;11.87;;;3.20;;
20454;SDS011;10386;54.314;10.022;2023-08-07T13:34:54;12.83;;;3.50;;
20454;SDS011;10386;54.314;10.022;2023-08-07T13:37:21;14.80;;;3.77;;
20454;SDS011;10386;54.314;10.022;2023-08-07T13:39:48;14.53;;;3.07;;
20454;SDS011;10386;54.314;10.022;2023-08-07T13:42:17;18.50;;;3.93;;
20454;SDS011;10386;54.314;10.022;2023-08-07T13:44:43;19.73;;;3.70;;
20454;SDS011;10386;54.314;10.022;2023-08-07T13:47:10;18.37;;;3.60;;
20454;SDS011;10386;54.314;10.022;2023-08-07T13:49:38;12.63;;;3.33;;
20454;SDS011;10386;54.314;10.022;2023-08-07T13:52:05;15.17;;;3.67;;
20454;SDS011;10386;54.314;10.022;2023-08-07T13:54:32;12.77;;;3.97;;
20454;SDS011;10386;54.314;10.022;2023-08-07T13:56:59;17.37;;;3.63;;
20454;SDS011;10386;54.314;10.022;2023-08-07T13:59:26;14.50;;;3.20;;
20454;SDS011;10386;54.314;10.022;2023-08-07T14:01:53;13.33;;;3.20;;
20454;SDS011;10386;54.314;10.022;2023-08-07T14:04:21;10.73;;;3.07;;
20454;SDS011;10386;54.314;10.022;2023-08-07T14:06:48;15.17;;;3.33;;
20454;SDS011;10386;54.314;10.022;2023-08-07T14:09:15;6.03;;;2.70;;
20454;SDS011;10386;54.314;10.022;2023-08-07T14:11:43;11.35;;;2.83;;
20454;SDS011;10386;54.314;10.022;2023-08-07T14:14:10;8.07;;;2.90;;
20454;SDS011;10386;54.314;10.022;2023-08-07T14:16:36;11.52;;;3.10;;
20454;SDS011;10386;54.314;10.022;2023-08-07T14:19:05;8.83;;;3.10;;
20454;SDS011;10386;54.314;10.022;2023-08-07T14:21:32;11.40;;;3.30;;
20454;SDS011;10386;54.314;10.022;2023-08-07T14:23:59;7.47;;;2.57;;
20454;SDS011;10386;54.314;10.022;2023-08-07T14:26:26;7.03;;;2.63;;
20454;SDS011;10386;54.314;10.022;2023-08-07T14:28:52;14.80;;;3.13;;
20454;SDS011;10386;54.314;10.022;2023-08-07T14:31:19;12.60;;;3.10;;
20454;SDS011;10386;54.314;10.022;2023-08-07T14:33:46;16.63;;;3.27;;
20454;SDS011;10386;54.314;10.022;2023-08-07T14:36:13;10.17;;;3.07;;
20454;SDS011;10386;54.314;10.022;2023-08-07T14:38:41;8.70;;;2.90;;
20454;SDS011;10386;54.314;10.022;2023-08-07T14:41:08;11.33;;;2.87;;
20454;SDS011;10386;54.314;10.022;2023-08-07T14:43:35;6.23;;;3.00;;
20454;SDS011;10386;54.314;10.022;2023-08-07T14:46:01;14.33;;;2.87;;
20454;SDS011;10386;54.314;10.022;2023-08-07T14:48:28;13.33;;;2.70;;
20454;SDS011;10386;54.314;10.022;2023-08-07T14:50:55;12.93;;;3.10;;
20454;SDS011;10386;54.314;10.022;2023-08-07T14:53:23;14.50;;;3.07;;
20454;SDS011;10386;54.314;10.022;2023-08-07T14:55:51;13.17;;;3.13;;
20454;SDS011;10386;54.314;10.022;2023-08-07T14:58:19;13.60;;;3.17;;